sensor_id;sensor_type;location;lat;lon;timestamp;temperature;humidity
60701;DHT22;46541;49.894;10.886;2023-10-13T00:00:35;16.00;99.90
60701;DHT22;46541;49.894;10.886;2023-10-13T00:03:07;16.10;99.90
60701;DHT22;46541;49.894;10.886;2023-10-13T00:05:42;16.10;99.90
60701;DHT22;46541;49.894;10.886;2023-10-13T00:08:10;16.10;99.90
60701;DHT22;46541;49.894;10.886;2023-10-13T00:10:36;16.10;99.90
60701;DHT22;46541;49.894;10.886;2023-10-13T00:13:03;16.10;99.90
60701;DHT22;46541;49.894;10.886;2023-10-13T00:15:43;16.00;99.90
60701;DHT22;46541;49.894;10.886;2023-10-13T00:18:29;16.00;99.90
60701;DHT22;46541;49.894;10.886;2023-10-13T00:21:09;16.00;99.90
60701;DHT22;46541;49.894;10.886;2023-10-13T00:23:58;16.00;99.90
60701;DHT22;46541;49.894;10.886;2023-10-13T00:26:32;16.10;99.90
60701;DHT22;46541;49.894;10.886;2023-10-13T00:29:09;16.10;99.90
60701;DHT22;46541;49.894;10.886;2023-10-13T00:31:43;16.00;99.90
60701;DHT22;46541;49.894;10.886;2023-10-13T00:34:11;16.10;99.90
60701;DHT22;46541;49.894;10.886;2023-10-13T00:36:54;16.10;99.90
60701;DHT22;46541;49.894;10.886;2023-10-13T00:39:45;16.10;99.90
60701;DHT22;46541;49.894;10.886;2023-10-13T00:42:13;16.10;99.90
60701;DHT22;46541;49.894;10.886;2023-10-13T00:44:47;16.10;99.90
60701;DHT22;46541;49.894;10.886;2023-10-13T00:47:21;16.10;99.90
60701;DHT22;46541;49.894;10.886;2023-10-13T00:50:20;16.10;99.90
60701;DHT22;46541;49.894;10.886;2023-10-13T00:52:47;16.10;99.90
60701;DHT22;46541;49.894;10.886;2023-10-13T00:55:18;16.10;99.90
60701;DHT22;46541;49.894;10.886;2023-10-13T00:57:52;16.10;99.90
60701;DHT22;46541;49.894;10.886;2023-10-13T01:00:21;16.10;99.90
60701;DHT22;46541;49.894;10.886;2023-10-13T01:02:55;16.10;99.90
60701;DHT22;46541;49.894;10.886;2023-10-13T01:05:23;16.10;99.90
60701;DHT22;46541;49.894;10.886;2023-10-13T01:07:51;16.10;99.90
60701;DHT22;46541;49.894;10.886;2023-10-13T01:10:22;16.10;99.90
60701;DHT22;46541;49.894;10.886;2023-10-13T01:12:52;16.10;99.90
60701;DHT22;46541;49.894;10.886;2023-10-13T01:15:20;16.10;99.90
60701;DHT22;46541;49.894;10.886;2023-10-13T01:18:11;16.10;99.90
60701;DHT22;46541;49.894;10.886;2023-10-13T01:20:42;16.10;99.90
60701;DHT22;46541;49.894;10.886;2023-10-13T01:23:13;16.10;99.90
60701;DHT22;46541;49.894;10.886;2023-10-13T01:25:46;16.10;99.90
60701;DHT22;46541;49.894;10.886;2023-10-13T01:28:14;16.10;99.90
60701;DHT22;46541;49.894;10.886;2023-10-13T01:30:43;16.10;99.90
60701;DHT22;46541;49.894;10.886;2023-10-13T01:33:20;16.10;99.90
60701;DHT22;46541;49.894;10.886;2023-10-13T01:35:55;16.10;99.90
60701;DHT22;46541;49.894;10.886;2023-10-13T01:38:25;16.10;99.90
60701;DHT22;46541;49.894;10.886;2023-10-13T01:40:53;16.10;99.90
60701;DHT22;46541;49.894;10.886;2023-10-13T01:43:23;16.10;99.90
60701;DHT22;46541;49.894;10.886;2023-10-13T01:45:50;16.10;99.90
60701;DHT22;46541;49.894;10.886;2023-10-13T01:48:17;16.10;99.90
60701;DHT22;46541;49.894;10.886;2023-10-13T01:50:47;16.10;99.90
60701;DHT22;46541;49.894;10.886;2023-10-13T01:53:18;16.00;99.90
60701;DHT22;46541;49.894;10.886;2023-10-13T01:55:46;16.10;99.90
60701;DHT22;46541;49.894;10.886;2023-10-13T01:58:14;16.10;99.90
60701;DHT22;46541;49.894;10.886;2023-10-13T02:00:49;16.00;99.90
60701;DHT22;46541;49.894;10.886;2023-10-13T02:03:16;16.00;99.90
60701;DHT22;46541;49.894;10.886;2023-10-13T02:05:44;16.00;99.90
60701;DHT22;46541;49.894;10.886;2023-10-13T02:08:19;16.00;99.90
60701;DHT22;46541;49.894;10.886;2023-10-13T02:10:53;16.00;99.90
60701;DHT22;46541;49.894;10.886;2023-10-13T02:13:23;16.00;99.90
60701;DHT22;46541;49.894;10.886;2023-10-13T02:15:55;16.00;99.90
60701;DHT22;46541;49.894;10.886;2023-10-13T02:18:24;16.00;99.90
60701;DHT22;46541;49.894;10.886;2023-10-13T02:21:01;16.00;99.90
60701;DHT22;46541;49.894;10.886;2023-10-13T02:23:31;16.00;99.90
60701;DHT22;46541;49.894;10.886;2023-10-13T02:26:01;15.90;99.90
60701;DHT22;46541;49.894;10.886;2023-10-13T02:28:29;15.90;99.90
60701;DHT22;46541;49.894;10.886;2023-10-13T02:31:04;15.90;99.90
60701;DHT22;46541;49.894;10.886;2023-10-13T02:33:31;15.90;99.90
60701;DHT22;46541;49.894;10.886;2023-10-13T02:36:00;15.90;99.90
60701;DHT22;46541;49.894;10.886;2023-10-13T02:38:30;15.90;99.90
60701;DHT22;46541;49.894;10.886;2023-10-13T02:41:03;15.90;99.90
60701;DHT22;46541;49.894;10.886;2023-10-13T02:43:36;15.90;99.90
60701;DHT22;46541;49.894;10.886;2023-10-13T02:46:04;15.90;99.90
60701;DHT22;46541;49.894;10.886;2023-10-13T02:48:31;15.90;99.90
60701;DHT22;46541;49.894;10.886;2023-10-13T02:51:08;15.90;99.90
60701;DHT22;46541;49.894;10.886;2023-10-13T02:53:45;15.90;99.90
60701;DHT22;46541;49.894;10.886;2023-10-13T02:56:16;16.00;99.90
60701;DHT22;46541;49.894;10.886;2023-10-13T02:58:50;16.00;99.90
60701;DHT22;46541;49.894;10.886;2023-10-13T03:01:20;16.00;99.90
60701;DHT22;46541;49.894;10.886;2023-10-13T03:03:49;16.00;99.90
60701;DHT22;46541;49.894;10.886;2023-10-13T03:06:18;16.00;99.90
60701;DHT22;46541;49.894;10.886;2023-10-13T03:08:48;16.00;99.90
60701;DHT22;46541;49.894;10.886;2023-10-13T03:11:15;16.00;99.90
60701;DHT22;46541;49.894;10.886;2023-10-13T03:13:48;16.00;99.90
60701;DHT22;46541;49.894;10.886;2023-10-13T03:16:18;16.00;99.90
60701;DHT22;46541;49.894;10.886;2023-10-13T03:18:47;16.00;99.90
60701;DHT22;46541;49.894;10.886;2023-10-13T03:21:23;15.90;99.90
60701;DHT22;46541;49.894;10.886;2023-10-13T03:24:00;15.90;99.90
60701;DHT22;46541;49.894;10.886;2023-10-13T03:26:33;15.90;99.90
60701;DHT22;46541;49.894;10.886;2023-10-13T03:29:04;15.90;99.90
60701;DHT22;46541;49.894;10.886;2023-10-13T03:31:34;15.90;99.90
60701;DHT22;46541;49.894;10.886;2023-10-13T03:34:05;15.90;99.90
60701;DHT22;46541;49.894;10.886;2023-10-13T03:36:32;15.90;99.90
60701;DHT22;46541;49.894;10.886;2023-10-13T03:39:18;16.00;99.90
60701;DHT22;46541;49.894;10.886;2023-10-13T03:41:45;16.00;99.90
60701;DHT22;46541;49.894;10.886;2023-10-13T03:44:22;16.00;99.90
60701;DHT22;46541;49.894;10.886;2023-10-13T03:46:49;16.00;99.90
60701;DHT22;46541;49.894;10.886;2023-10-13T03:49:16;16.00;99.90
60701;DHT22;46541;49.894;10.886;2023-10-13T03:51:48;16.00;99.90
60701;DHT22;46541;49.894;10.886;2023-10-13T03:54:16;16.00;99.90
60701;DHT22;46541;49.894;10.886;2023-10-13T03:56:43;16.00;99.90
60701;DHT22;46541;49.894;10.886;2023-10-13T03:59:18;16.00;99.90
60701;DHT22;46541;49.894;10.886;2023-10-13T04:01:47;16.00;99.90
60701;DHT22;46541;49.894;10.886;2023-10-13T04:04:29;16.00;99.90
60701;DHT22;46541;49.894;10.886;2023-10-13T04:07:01;16.00;99.90
60701;DHT22;46541;49.894;10.886;2023-10-13T04:09:31;16.00;99.90
60701;DHT22;46541;49.894;10.886;2023-10-13T04:12:07;16.00;99.90
60701;DHT22;46541;49.894;10.886;2023-10-13T04:15:07;16.00;99.90
60701;DHT22;46541;49.894;10.886;2023-10-13T04:17:49;16.00;99.90
60701;DHT22;46541;49.894;10.886;2023-10-13T04:20:17;16.00;99.90
60701;DHT22;46541;49.894;10.886;2023-10-13T04:22:55;16.00;99.90
60701;DHT22;46541;49.894;10.886;2023-10-13T04:25:27;16.00;99.90
60701;DHT22;46541;49.894;10.886;2023-10-13T04:28:12;16.00;99.90
60701;DHT22;46541;49.894;10.886;2023-10-13T04:33:19;16.10;99.90
60701;DHT22;46541;49.894;10.886;2023-10-13T04:36:05;16.10;99.90
60701;DHT22;46541;49.894;10.886;2023-10-13T04:38:44;16.10;99.90
60701;DHT22;46541;49.894;10.886;2023-10-13T04:41:37;16.00;99.90
60701;DHT22;46541;49.894;10.886;2023-10-13T04:44:12;16.10;99.90
60701;DHT22;46541;49.894;10.886;2023-10-13T04:46:59;16.10;99.90
60701;DHT22;46541;49.894;10.886;2023-10-13T04:49:31;16.10;99.90
60701;DHT22;46541;49.894;10.886;2023-10-13T04:52:02;16.10;99.90
60701;DHT22;46541;49.894;10.886;2023-10-13T04:54:36;16.10;99.90
60701;DHT22;46541;49.894;10.886;2023-10-13T04:57:20;16.10;99.90
60701;DHT22;46541;49.894;10.886;2023-10-13T04:59:53;16.10;99.90
60701;DHT22;46541;49.894;10.886;2023-10-13T05:02:42;16.10;99.90
60701;DHT22;46541;49.894;10.886;2023-10-13T05:05:28;16.00;99.90
60701;DHT22;46541;49.894;10.886;2023-10-13T05:08:13;16.00;99.90
60701;DHT22;46541;49.894;10.886;2023-10-13T05:11:04;16.00;99.90
60701;DHT22;46541;49.894;10.886;2023-10-13T05:13:49;15.90;99.90
60701;DHT22;46541;49.894;10.886;2023-10-13T05:16:35;15.90;99.90
60701;DHT22;46541;49.894;10.886;2023-10-13T05:19:20;15.80;99.90
60701;DHT22;46541;49.894;10.886;2023-10-13T05:22:06;15.80;99.90
60701;DHT22;46541;49.894;10.886;2023-10-13T05:24:51;15.80;99.90
60701;DHT22;46541;49.894;10.886;2023-10-13T05:27:37;15.70;99.90
60701;DHT22;46541;49.894;10.886;2023-10-13T05:30:22;15.80;99.90
60701;DHT22;46541;49.894;10.886;2023-10-13T05:33:08;15.80;99.90
60701;DHT22;46541;49.894;10.886;2023-10-13T05:35:53;15.80;99.90
60701;DHT22;46541;49.894;10.886;2023-10-13T05:38:38;15.70;99.90
60701;DHT22;46541;49.894;10.886;2023-10-13T05:41:24;15.70;99.90
60701;DHT22;46541;49.894;10.886;2023-10-13T05:44:09;15.70;99.90
60701;DHT22;46541;49.894;10.886;2023-10-13T05:46:55;15.80;99.90
60701;DHT22;46541;49.894;10.886;2023-10-13T05:49:48;15.70;99.90
60701;DHT22;46541;49.894;10.886;2023-10-13T05:52:31;15.70;99.90
60701;DHT22;46541;49.894;10.886;2023-10-13T05:55:17;15.80;99.90
60701;DHT22;46541;49.894;10.886;2023-10-13T05:58:02;15.80;99.90
60701;DHT22;46541;49.894;10.886;2023-10-13T06:00:48;15.80;99.90
60701;DHT22;46541;49.894;10.886;2023-10-13T06:03:33;15.80;99.90
60701;DHT22;46541;49.894;10.886;2023-10-13T06:06:19;15.80;99.90
60701;DHT22;46541;49.894;10.886;2023-10-13T06:09:04;15.80;99.90
60701;DHT22;46541;49.894;10.886;2023-10-13T06:11:50;15.80;99.90
60701;DHT22;46541;49.894;10.886;2023-10-13T06:14:35;15.80;99.90
60701;DHT22;46541;49.894;10.886;2023-10-13T06:17:20;15.80;99.90
60701;DHT22;46541;49.894;10.886;2023-10-13T06:20:06;15.80;99.90
60701;DHT22;46541;49.894;10.886;2023-10-13T06:22:52;15.80;99.90
60701;DHT22;46541;49.894;10.886;2023-10-13T06:25:38;15.80;99.90
60701;DHT22;46541;49.894;10.886;2023-10-13T06:28:24;15.90;99.90
60701;DHT22;46541;49.894;10.886;2023-10-13T06:31:11;15.90;99.90
60701;DHT22;46541;49.894;10.886;2023-10-13T06:33:50;16.00;99.90
60701;DHT22;46541;49.894;10.886;2023-10-13T06:36:17;16.00;99.90
60701;DHT22;46541;49.894;10.886;2023-10-13T06:38:44;16.00;99.90
60701;DHT22;46541;49.894;10.886;2023-10-13T06:41:11;16.10;99.90
60701;DHT22;46541;49.894;10.886;2023-10-13T06:43:47;16.10;99.90
60701;DHT22;46541;49.894;10.886;2023-10-13T06:46:26;16.20;99.90
60701;DHT22;46541;49.894;10.886;2023-10-13T06:48:55;16.30;99.90
60701;DHT22;46541;49.894;10.886;2023-10-13T06:51:22;16.30;99.90
60701;DHT22;46541;49.894;10.886;2023-10-13T06:53:49;16.30;99.90
60701;DHT22;46541;49.894;10.886;2023-10-13T06:56:18;16.40;99.90
60701;DHT22;46541;49.894;10.886;2023-10-13T06:58:55;16.40;99.90
60701;DHT22;46541;49.894;10.886;2023-10-13T07:01:31;16.50;99.90
60701;DHT22;46541;49.894;10.886;2023-10-13T07:04:09;16.60;99.90
60701;DHT22;46541;49.894;10.886;2023-10-13T07:06:44;16.60;99.90
60701;DHT22;46541;49.894;10.886;2023-10-13T07:09:17;16.60;99.90
60701;DHT22;46541;49.894;10.886;2023-10-13T07:12:05;16.70;99.90
60701;DHT22;46541;49.894;10.886;2023-10-13T07:14:49;16.80;99.90
60701;DHT22;46541;49.894;10.886;2023-10-13T07:17:19;16.90;99.90
60701;DHT22;46541;49.894;10.886;2023-10-13T07:19:53;17.00;99.90
60701;DHT22;46541;49.894;10.886;2023-10-13T07:22:22;17.00;99.90
60701;DHT22;46541;49.894;10.886;2023-10-13T07:24:50;17.10;99.90
60701;DHT22;46541;49.894;10.886;2023-10-13T07:27:18;17.10;99.90
60701;DHT22;46541;49.894;10.886;2023-10-13T07:29:54;17.00;99.90
60701;DHT22;46541;49.894;10.886;2023-10-13T07:32:40;17.00;99.90
60701;DHT22;46541;49.894;10.886;2023-10-13T07:35:18;17.10;99.90
60701;DHT22;46541;49.894;10.886;2023-10-13T07:37:51;17.10;99.90
60701;DHT22;46541;49.894;10.886;2023-10-13T07:40:20;17.20;99.90
60701;DHT22;46541;49.894;10.886;2023-10-13T07:42:54;17.20;99.90
60701;DHT22;46541;49.894;10.886;2023-10-13T07:45:37;17.30;99.90
60701;DHT22;46541;49.894;10.886;2023-10-13T07:48:09;17.30;99.90
60701;DHT22;46541;49.894;10.886;2023-10-13T07:51:06;17.30;99.90
60701;DHT22;46541;49.894;10.886;2023-10-13T07:53:45;17.40;99.90
60701;DHT22;46541;49.894;10.886;2023-10-13T07:56:18;17.60;99.90
60701;DHT22;46541;49.894;10.886;2023-10-13T07:58:45;17.70;99.90
60701;DHT22;46541;49.894;10.886;2023-10-13T08:01:30;17.70;99.90
60701;DHT22;46541;49.894;10.886;2023-10-13T08:03:59;17.70;99.90
60701;DHT22;46541;49.894;10.886;2023-10-13T08:06:38;17.70;99.90
60701;DHT22;46541;49.894;10.886;2023-10-13T08:09:07;17.70;99.90
60701;DHT22;46541;49.894;10.886;2023-10-13T08:11:35;17.80;99.90
60701;DHT22;46541;49.894;10.886;2023-10-13T08:14:05;17.70;99.90
60701;DHT22;46541;49.894;10.886;2023-10-13T08:16:56;17.70;99.90
60701;DHT22;46541;49.894;10.886;2023-10-13T08:19:34;17.70;99.90
60701;DHT22;46541;49.894;10.886;2023-10-13T08:22:14;17.70;99.90
60701;DHT22;46541;49.894;10.886;2023-10-13T08:24:45;17.80;99.90
60701;DHT22;46541;49.894;10.886;2023-10-13T08:27:13;17.90;99.90
60701;DHT22;46541;49.894;10.886;2023-10-13T08:29:42;17.90;99.90
60701;DHT22;46541;49.894;10.886;2023-10-13T08:32:26;18.00;99.90
60701;DHT22;46541;49.894;10.886;2023-10-13T08:35:00;18.00;99.90
60701;DHT22;46541;49.894;10.886;2023-10-13T08:37:31;18.00;99.90
60701;DHT22;46541;49.894;10.886;2023-10-13T08:40:16;18.00;99.90
60701;DHT22;46541;49.894;10.886;2023-10-13T08:43:03;18.20;99.90
60701;DHT22;46541;49.894;10.886;2023-10-13T08:45:36;18.40;99.90
60701;DHT22;46541;49.894;10.886;2023-10-13T08:48:03;18.40;99.90
60701;DHT22;46541;49.894;10.886;2023-10-13T08:50:47;18.60;99.90
60701;DHT22;46541;49.894;10.886;2023-10-13T08:56:04;18.80;99.90
60701;DHT22;46541;49.894;10.886;2023-10-13T08:58:50;18.90;99.90
60701;DHT22;46541;49.894;10.886;2023-10-13T09:04:08;19.20;99.90
60701;DHT22;46541;49.894;10.886;2023-10-13T09:07:00;19.40;99.90
60701;DHT22;46541;49.894;10.886;2023-10-13T09:12:27;19.60;99.90
60701;DHT22;46541;49.894;10.886;2023-10-13T09:15:03;19.70;99.90
60701;DHT22;46541;49.894;10.886;2023-10-13T09:17:46;19.90;99.90
60701;DHT22;46541;49.894;10.886;2023-10-13T09:20:39;20.10;99.90
60701;DHT22;46541;49.894;10.886;2023-10-13T09:23:10;20.40;99.90
60701;DHT22;46541;49.894;10.886;2023-10-13T09:25:40;20.50;99.90
60701;DHT22;46541;49.894;10.886;2023-10-13T09:28:28;20.50;99.90
60701;DHT22;46541;49.894;10.886;2023-10-13T09:30:55;20.60;99.90
60701;DHT22;46541;49.894;10.886;2023-10-13T09:33:27;20.90;99.90
60701;DHT22;46541;49.894;10.886;2023-10-13T09:36:03;21.00;99.90
60701;DHT22;46541;49.894;10.886;2023-10-13T09:38:35;21.00;99.90
60701;DHT22;46541;49.894;10.886;2023-10-13T09:41:29;21.20;99.90
60701;DHT22;46541;49.894;10.886;2023-10-13T09:43:58;21.40;99.90
60701;DHT22;46541;49.894;10.886;2023-10-13T09:46:27;21.50;99.90
60701;DHT22;46541;49.894;10.886;2023-10-13T09:48:58;21.70;99.90
60701;DHT22;46541;49.894;10.886;2023-10-13T09:51:35;21.90;99.90
60701;DHT22;46541;49.894;10.886;2023-10-13T09:54:08;21.60;99.90
60701;DHT22;46541;49.894;10.886;2023-10-13T09:57:10;21.50;99.90
60701;DHT22;46541;49.894;10.886;2023-10-13T09:59:54;21.40;99.90
60701;DHT22;46541;49.894;10.886;2023-10-13T10:02:23;21.40;99.90
60701;DHT22;46541;49.894;10.886;2023-10-13T10:04:56;21.60;99.90
60701;DHT22;46541;49.894;10.886;2023-10-13T10:07:39;21.70;99.90
60701;DHT22;46541;49.894;10.886;2023-10-13T10:10:08;21.80;99.90
60701;DHT22;46541;49.894;10.886;2023-10-13T10:12:55;21.90;99.90
60701;DHT22;46541;49.894;10.886;2023-10-13T10:15:32;21.80;99.90
60701;DHT22;46541;49.894;10.886;2023-10-13T10:18:02;21.90;99.90
60701;DHT22;46541;49.894;10.886;2023-10-13T10:23:00;22.10;99.90
60701;DHT22;46541;49.894;10.886;2023-10-13T10:25:31;22.30;99.90
60701;DHT22;46541;49.894;10.886;2023-10-13T10:28:04;22.50;99.90
60701;DHT22;46541;49.894;10.886;2023-10-13T10:30:38;22.60;99.90
60701;DHT22;46541;49.894;10.886;2023-10-13T10:33:06;22.80;99.90
60701;DHT22;46541;49.894;10.886;2023-10-13T10:35:59;22.90;99.90
60701;DHT22;46541;49.894;10.886;2023-10-13T10:38:26;23.10;99.90
60701;DHT22;46541;49.894;10.886;2023-10-13T10:41:03;23.30;99.90
60701;DHT22;46541;49.894;10.886;2023-10-13T10:46:26;23.40;99.90
60701;DHT22;46541;49.894;10.886;2023-10-13T10:48:57;23.50;99.90
60701;DHT22;46541;49.894;10.886;2023-10-13T10:51:28;23.50;99.90
60701;DHT22;46541;49.894;10.886;2023-10-13T10:53:59;23.50;99.90
60701;DHT22;46541;49.894;10.886;2023-10-13T10:56:37;23.60;99.90
60701;DHT22;46541;49.894;10.886;2023-10-13T10:59:06;23.70;99.90
60701;DHT22;46541;49.894;10.886;2023-10-13T11:01:45;23.80;99.90
60701;DHT22;46541;49.894;10.886;2023-10-13T11:04:18;23.80;99.90
60701;DHT22;46541;49.894;10.886;2023-10-13T11:06:54;23.90;99.90
60701;DHT22;46541;49.894;10.886;2023-10-13T11:09:28;23.90;99.90
60701;DHT22;46541;49.894;10.886;2023-10-13T11:12:09;24.10;99.90
60701;DHT22;46541;49.894;10.886;2023-10-13T11:14:45;24.20;99.90
60701;DHT22;46541;49.894;10.886;2023-10-13T11:17:22;24.30;99.90
60701;DHT22;46541;49.894;10.886;2023-10-13T11:20:12;24.40;99.90
60701;DHT22;46541;49.894;10.886;2023-10-13T11:22:52;24.50;99.90
60701;DHT22;46541;49.894;10.886;2023-10-13T11:25:37;24.80;99.90
60701;DHT22;46541;49.894;10.886;2023-10-13T11:28:15;25.00;99.90
60701;DHT22;46541;49.894;10.886;2023-10-13T11:30:58;25.20;99.90
60701;DHT22;46541;49.894;10.886;2023-10-13T11:33:43;25.10;99.90
60701;DHT22;46541;49.894;10.886;2023-10-13T11:36:13;25.00;99.90
60701;DHT22;46541;49.894;10.886;2023-10-13T11:38:44;24.80;99.90
60701;DHT22;46541;49.894;10.886;2023-10-13T11:41:16;24.60;99.90
60701;DHT22;46541;49.894;10.886;2023-10-13T11:43:51;24.40;99.90
60701;DHT22;46541;49.894;10.886;2023-10-13T11:46:23;24.30;99.90
60701;DHT22;46541;49.894;10.886;2023-10-13T11:51:49;24.20;99.90
60701;DHT22;46541;49.894;10.886;2023-10-13T11:54:19;24.30;99.90
60701;DHT22;46541;49.894;10.886;2023-10-13T11:56:49;24.40;99.90
60701;DHT22;46541;49.894;10.886;2023-10-13T11:59:16;24.50;99.90
60701;DHT22;46541;49.894;10.886;2023-10-13T12:01:44;24.60;99.90
60701;DHT22;46541;49.894;10.886;2023-10-13T12:04:30;24.50;99.90
60701;DHT22;46541;49.894;10.886;2023-10-13T12:07:00;24.30;99.90
60701;DHT22;46541;49.894;10.886;2023-10-13T12:09:48;24.30;99.90
60701;DHT22;46541;49.894;10.886;2023-10-13T12:12:25;24.20;99.90
60701;DHT22;46541;49.894;10.886;2023-10-13T12:14:53;24.10;99.90
60701;DHT22;46541;49.894;10.886;2023-10-13T12:17:24;24.10;99.90
60701;DHT22;46541;49.894;10.886;2023-10-13T12:20:04;24.00;99.90
60701;DHT22;46541;49.894;10.886;2023-10-13T12:22:33;24.10;99.90
60701;DHT22;46541;49.894;10.886;2023-10-13T12:25:05;24.30;99.90
60701;DHT22;46541;49.894;10.886;2023-10-13T12:27:52;24.30;99.90
60701;DHT22;46541;49.894;10.886;2023-10-13T12:30:24;24.30;99.90
60701;DHT22;46541;49.894;10.886;2023-10-13T12:33:16;24.30;99.90
60701;DHT22;46541;49.894;10.886;2023-10-13T12:36:01;24.30;99.40
60701;DHT22;46541;49.894;10.886;2023-10-13T12:38:40;24.40;99.90
60701;DHT22;46541;49.894;10.886;2023-10-13T12:41:14;24.40;99.70
60701;DHT22;46541;49.894;10.886;2023-10-13T12:44:03;24.40;97.70
60701;DHT22;46541;49.894;10.886;2023-10-13T12:46:49;24.50;97.60
60701;DHT22;46541;49.894;10.886;2023-10-13T12:49:35;24.50;97.30
60701;DHT22;46541;49.894;10.886;2023-10-13T12:52:16;24.60;96.10
60701;DHT22;46541;49.894;10.886;2023-10-13T12:54:43;24.60;95.40
60701;DHT22;46541;49.894;10.886;2023-10-13T12:57:36;24.70;95.40
60701;DHT22;46541;49.894;10.886;2023-10-13T13:00:11;24.70;94.60
60701;DHT22;46541;49.894;10.886;2023-10-13T13:02:48;24.80;95.20
60701;DHT22;46541;49.894;10.886;2023-10-13T13:05:18;24.80;94.70
60701;DHT22;46541;49.894;10.886;2023-10-13T13:07:49;24.80;95.80
60701;DHT22;46541;49.894;10.886;2023-10-13T13:10:19;24.80;94.50
60701;DHT22;46541;49.894;10.886;2023-10-13T13:12:55;24.70;94.40
60701;DHT22;46541;49.894;10.886;2023-10-13T13:15:22;24.60;94.50
60701;DHT22;46541;49.894;10.886;2023-10-13T13:17:50;24.60;95.20
60701;DHT22;46541;49.894;10.886;2023-10-13T13:20:17;24.50;94.40
60701;DHT22;46541;49.894;10.886;2023-10-13T13:22:54;24.40;94.70
60701;DHT22;46541;49.894;10.886;2023-10-13T13:25:22;24.30;94.50
60701;DHT22;46541;49.894;10.886;2023-10-13T13:27:52;24.40;95.20
60701;DHT22;46541;49.894;10.886;2023-10-13T13:30:19;24.40;94.40
60701;DHT22;46541;49.894;10.886;2023-10-13T13:32:48;24.40;95.00
60701;DHT22;46541;49.894;10.886;2023-10-13T13:35:15;24.50;94.30
60701;DHT22;46541;49.894;10.886;2023-10-13T13:37:45;24.50;94.60
60701;DHT22;46541;49.894;10.886;2023-10-13T13:40:12;24.50;94.20
60701;DHT22;46541;49.894;10.886;2023-10-13T13:42:43;24.60;94.20
60701;DHT22;46541;49.894;10.886;2023-10-13T13:45:18;24.60;94.20
60701;DHT22;46541;49.894;10.886;2023-10-13T13:47:54;24.60;93.80
60701;DHT22;46541;49.894;10.886;2023-10-13T13:50:26;24.50;94.20
60701;DHT22;46541;49.894;10.886;2023-10-13T13:52:58;24.60;93.60
60701;DHT22;46541;49.894;10.886;2023-10-13T13:55:33;24.60;93.60
60701;DHT22;46541;49.894;10.886;2023-10-13T13:58:00;24.60;94.40
60701;DHT22;46541;49.894;10.886;2023-10-13T14:00:27;24.60;93.90
60701;DHT22;46541;49.894;10.886;2023-10-13T14:03:14;24.60;93.60
60701;DHT22;46541;49.894;10.886;2023-10-13T14:06:15;24.50;93.80
60701;DHT22;46541;49.894;10.886;2023-10-13T14:08:47;24.40;94.20
60701;DHT22;46541;49.894;10.886;2023-10-13T14:11:18;24.30;94.20
60701;DHT22;46541;49.894;10.886;2023-10-13T14:14:03;24.30;94.70
60701;DHT22;46541;49.894;10.886;2023-10-13T14:16:41;24.30;94.60
60701;DHT22;46541;49.894;10.886;2023-10-13T14:19:12;24.20;94.20
60701;DHT22;46541;49.894;10.886;2023-10-13T14:21:38;24.10;94.50
60701;DHT22;46541;49.894;10.886;2023-10-13T14:24:05;24.10;95.00
60701;DHT22;46541;49.894;10.886;2023-10-13T14:26:43;24.00;94.80
60701;DHT22;46541;49.894;10.886;2023-10-13T14:29:10;23.80;95.20
60701;DHT22;46541;49.894;10.886;2023-10-13T14:31:40;23.70;95.00
60701;DHT22;46541;49.894;10.886;2023-10-13T14:34:08;23.70;95.60
60701;DHT22;46541;49.894;10.886;2023-10-13T14:36:35;23.60;96.10
60701;DHT22;46541;49.894;10.886;2023-10-13T14:39:04;23.60;95.90
60701;DHT22;46541;49.894;10.886;2023-10-13T14:41:38;23.60;96.10
60701;DHT22;46541;49.894;10.886;2023-10-13T14:44:05;23.60;96.00
60701;DHT22;46541;49.894;10.886;2023-10-13T14:46:34;23.60;96.70
60701;DHT22;46541;49.894;10.886;2023-10-13T14:49:06;23.60;96.80
60701;DHT22;46541;49.894;10.886;2023-10-13T14:51:33;23.50;97.50
60701;DHT22;46541;49.894;10.886;2023-10-13T14:54:00;23.40;97.00
60701;DHT22;46541;49.894;10.886;2023-10-13T14:56:27;23.40;97.50
60701;DHT22;46541;49.894;10.886;2023-10-13T14:58:54;23.40;98.00
60701;DHT22;46541;49.894;10.886;2023-10-13T15:01:22;23.30;97.60
60701;DHT22;46541;49.894;10.886;2023-10-13T15:03:51;23.30;98.20
60701;DHT22;46541;49.894;10.886;2023-10-13T15:06:26;23.20;98.40
60701;DHT22;46541;49.894;10.886;2023-10-13T15:08:58;23.20;97.30
60701;DHT22;46541;49.894;10.886;2023-10-13T15:11:26;23.10;97.90
60701;DHT22;46541;49.894;10.886;2023-10-13T15:14:15;23.10;97.90
60701;DHT22;46541;49.894;10.886;2023-10-13T15:16:42;23.00;97.60
60701;DHT22;46541;49.894;10.886;2023-10-13T15:19:10;22.90;98.30
60701;DHT22;46541;49.894;10.886;2023-10-13T15:21:37;22.80;98.90
60701;DHT22;46541;49.894;10.886;2023-10-13T15:24:07;22.80;98.40
60701;DHT22;46541;49.894;10.886;2023-10-13T15:26:53;22.70;98.60
60701;DHT22;46541;49.894;10.886;2023-10-13T15:29:28;22.60;98.90
60701;DHT22;46541;49.894;10.886;2023-10-13T15:32:04;22.60;98.50
60701;DHT22;46541;49.894;10.886;2023-10-13T15:34:31;22.50;99.00
60701;DHT22;46541;49.894;10.886;2023-10-13T15:37:00;22.50;98.70
60701;DHT22;46541;49.894;10.886;2023-10-13T15:39:27;22.50;98.30
60701;DHT22;46541;49.894;10.886;2023-10-13T15:41:55;22.40;98.60
60701;DHT22;46541;49.894;10.886;2023-10-13T15:44:26;22.40;99.10
60701;DHT22;46541;49.894;10.886;2023-10-13T15:46:57;22.40;98.50
60701;DHT22;46541;49.894;10.886;2023-10-13T15:49:30;22.30;98.20
60701;DHT22;46541;49.894;10.886;2023-10-13T15:51:59;22.30;99.70
60701;DHT22;46541;49.894;10.886;2023-10-13T15:54:25;22.20;99.10
60701;DHT22;46541;49.894;10.886;2023-10-13T15:56:52;22.20;99.50
60701;DHT22;46541;49.894;10.886;2023-10-13T15:59:20;22.10;99.90
60701;DHT22;46541;49.894;10.886;2023-10-13T16:01:49;22.10;99.90
60701;DHT22;46541;49.894;10.886;2023-10-13T16:04:21;22.00;99.60
60701;DHT22;46541;49.894;10.886;2023-10-13T16:06:49;21.90;98.60
60701;DHT22;46541;49.894;10.886;2023-10-13T16:09:19;21.90;98.70
60701;DHT22;46541;49.894;10.886;2023-10-13T16:11:53;21.90;98.80
60701;DHT22;46541;49.894;10.886;2023-10-13T16:14:20;21.90;99.60
60701;DHT22;46541;49.894;10.886;2023-10-13T16:16:50;21.90;99.90
60701;DHT22;46541;49.894;10.886;2023-10-13T16:19:21;21.80;99.90
60701;DHT22;46541;49.894;10.886;2023-10-13T16:21:53;21.80;99.90